Atlanta, Georgia
Traffic Map
Current Weather Conditions
Atlanta, Georgia
Few Clouds
Few Clouds
11°
Feels Like: 11°
Wind Chill: 11° Ceiling: Unl
Heat Index: 11° Visibility: 10mi
Dew Point: Wind: 0mph
Humidity: 83% Direction: ° ()
Pressure: 30.27in Gusts: 0mph
Raw Report DataKATL 201052Z 00000KT 10SM FEW250 11/08 A3027 RMK AO2 SLP249 T01060078
Traffic Incident Summary
Active as of:
Severity:
Category:
InformationThere was an issue retrieving the traffic information for this location. Please try a different location or try again shortly.
Advertisements